Abu Musa, Iran

10:07 AM IRST on October 23, 2014 (GMT +0330)
Abumusa | Change Station
CLOSE
Current Station
Airport
Location: ABUMUSA ISLAND,
Elevation: 23 ft
Nearby Weather Stations

Elev 23 ft 25.88 °N, 55.03 °E | Updated 37 minutes ago

Clear
Clear
91 °F
Feels Like 93 °F
N
16
Wind Variable Wind from West

Today
High -- | Low -- °F
--% Chance of Precip.
Yesterday
High -- | Low -- °F
Precip. -- in
5:53 AM 5:16 PM
Waning Crescent, 0% visible
Pressure 29.92 in
Visibility -9999.0 miles
Clouds
Heat Index 93 °F
Dew Point 64 °F
Humidity 41%
Rainfall 0.00 in
Snow Depth Not available.
UV Not available.
Pollen Not available.
Air Quality Not available.
Flu Activity Not available.
METAR OIBA 230600Z 28014KT CAVOK 33/18 Q1013

More Conditions Fewer Conditions

Pressure 29.92 in
Visibility -9999.0 miles
Clouds
Heat Index 93 °F
Dew Point 64 °F
Humidity 41%
Rainfall 0.00 in
Snow Depth Not available.
UV Not available.
Pollen Not available.
Air Quality Not available.
Flu Activity Not available.
METAR OIBA 230600Z 28014KT CAVOK 33/18 Q1013

More Conditions Fewer Conditions

10-Day Weather Forecast

Almanac

Astronomy

Oct. 23, 2014 Rise Set
Actual Time 5:53 AM IRST 5:16 PM IRST
Civil Twilight 5:30 AM IRST 5:39 PM IRST
Nautical Twilight 5:03 AM IRST 6:06 PM IRST
Astronomical Twilight 4:36 AM IRST 6:33 PM IRST
Moon 5:13 AM IRST 5:01 PM IRST
Length of Visible Light 12h 09m
Length of Day
11h 22m
Tomorrow will be 1m 23s shorter.
Waning Crescent, 0% of the Moon is Illuminated
Today
Waning Crescent
Oct 23
New
Oct 30
First Quarter
Nov 6
Full
Nov 14
Last Quarter

Yesterday's Extremes

Country Highs Country Lows

Community

WunderPhotos

Upload Photos

1,764,194 photos uploaded!

Nearby

Snow Depth

Not available.

Earthquake Activity

City Distance Mag. Time & Date
No recent earthquake activity has been reported nearby.
Minimum magnitude displayed is 2.5.

Coastal Water Temperatures

Place Temperature
No Stations Reporting

Nearby Weather Stations